createdAt,value
2019-01-21T00:03:02.576Z,14.79
2019-01-21T00:08:57.546Z,13.32
2019-01-21T00:14:52.568Z,15.35
2019-01-21T00:20:47.586Z,15.26
2019-01-21T00:26:42.567Z,15.55
2019-01-21T00:32:37.576Z,14.99
2019-01-21T00:38:32.602Z,14.14
2019-01-21T00:44:27.587Z,13.93
2019-01-21T00:50:22.596Z,12.62
2019-01-21T00:56:17.605Z,12.93
2019-01-21T01:02:12.601Z,12.47
2019-01-21T01:08:07.633Z,12.53
2019-01-21T01:14:02.631Z,12.46
2019-01-21T01:19:57.618Z,11.28
2019-01-21T01:25:52.584Z,11.89
2019-01-21T01:31:47.598Z,9.93
2019-01-21T01:37:42.602Z,10.07
2019-01-21T01:43:37.624Z,7.85
2019-01-21T01:49:32.637Z,8.64
2019-01-21T01:55:27.638Z,6.88
2019-01-21T02:01:22.600Z,7.23
2019-01-21T02:07:17.655Z,6.27
2019-01-21T02:13:12.630Z,5.47
2019-01-21T02:19:07.642Z,6.57
2019-01-21T02:25:02.635Z,6.08
2019-01-21T02:30:57.646Z,6.47
2019-01-21T02:36:52.697Z,6.84
2019-01-21T02:42:47.641Z,6.1
2019-01-21T02:48:42.647Z,5.45
2019-01-21T02:54:37.705Z,6.44
2019-01-21T03:00:32.684Z,4.99
2019-01-21T03:06:27.703Z,5.02
2019-01-21T03:12:22.677Z,5.81
2019-01-21T03:18:17.682Z,6.25
2019-01-21T03:24:12.699Z,8.65
2019-01-21T03:30:07.677Z,7.07
2019-01-21T03:36:02.721Z,8.18
2019-01-21T03:41:57.718Z,8.46
2019-01-21T03:47:52.709Z,7.06
2019-01-21T03:53:47.666Z,7.22
2019-01-21T03:59:42.659Z,7.39
2019-01-21T04:05:37.706Z,5.83
2019-01-21T04:11:32.701Z,5.4
2019-01-21T04:17:27.707Z,5.87
2019-01-21T04:23:22.688Z,5.71
2019-01-21T04:29:17.718Z,6.93
2019-01-21T04:35:12.693Z,5.99
2019-01-21T04:47:03.144Z,5.56
2019-01-21T04:47:03.156Z,5.56
2019-01-21T04:52:57.730Z,5
2019-01-21T04:58:52.758Z,4.15
2019-01-21T05:04:47.734Z,4.59
2019-01-21T05:10:42.737Z,3.63
2019-01-21T05:16:43.525Z,4.05
2019-01-21T05:22:32.726Z,4.28
2019-01-21T05:28:27.762Z,5.17
2019-01-21T05:40:21.458Z,3.76
2019-01-21T05:40:21.475Z,3.76
2019-01-21T05:46:12.746Z,3.85
2019-01-21T05:52:07.742Z,3.61
2019-01-21T05:58:02.736Z,6.7
2019-01-21T06:03:57.735Z,4.31
2019-01-21T06:15:47.778Z,4.17
2019-01-21T06:15:47.813Z,4.73
2019-01-21T06:21:42.799Z,4.29
2019-01-21T06:27:37.766Z,4.83
2019-01-21T06:33:32.771Z,4.29
2019-01-21T06:39:27.773Z,4.67
2019-01-21T06:45:22.786Z,4.37
2019-01-21T06:51:17.787Z,4.46
2019-01-21T07:09:02.795Z,3.82
2019-01-21T07:09:02.807Z,3.42
2019-01-21T07:09:02.863Z,3.42
2019-01-21T07:20:53.027Z,2.22
2019-01-21T07:20:53.083Z,2.22
2019-01-21T07:32:42.845Z,2.1
2019-01-21T07:32:42.847Z,2.1
2019-01-21T07:38:37.826Z,2.24
2019-01-21T07:44:32.804Z,2.1
2019-01-21T07:50:34.324Z,2.41
2019-01-21T07:56:22.820Z,2.32
2019-01-21T08:02:17.853Z,2.17
2019-01-21T08:08:12.807Z,2.36
2019-01-21T08:14:07.819Z,2.26
2019-01-21T08:20:02.805Z,2.4
2019-01-21T08:25:57.853Z,2.49
2019-01-21T08:31:52.826Z,2.72
2019-01-21T08:37:47.876Z,3.15
2019-01-21T08:43:42.833Z,3.03
2019-01-21T08:49:37.831Z,2.85
2019-01-21T08:55:32.844Z,3.69
2019-01-21T09:01:27.862Z,4.44
2019-01-21T09:07:22.837Z,4.04
2019-01-21T09:13:17.864Z,4.06
2019-01-21T09:19:12.837Z,5.1
2019-01-21T09:25:07.858Z,4.35
2019-01-21T09:31:02.853Z,4.69
2019-01-21T09:36:57.855Z,6.03
2019-01-21T09:42:52.876Z,5.83
2019-01-21T09:48:47.893Z,6.19
2019-01-21T09:54:42.902Z,4.73
2019-01-21T10:00:37.911Z,4.34
2019-01-21T10:06:32.867Z,4.1
2019-01-21T10:12:27.868Z,4.33
2019-01-21T10:18:22.887Z,4.24
2019-01-21T10:24:17.923Z,4.54
2019-01-21T10:30:12.895Z,3.51
2019-01-21T10:36:07.893Z,3.88
2019-01-21T10:42:02.964Z,3.97
2019-01-21T10:47:57.879Z,3.6
2019-01-21T10:53:52.934Z,3.93
2019-01-21T10:59:47.922Z,3.67
2019-01-21T11:05:42.903Z,4.38
2019-01-21T11:11:37.903Z,4.59
2019-01-21T11:17:32.937Z,4.33
2019-01-21T11:23:27.906Z,3.57
2019-01-21T11:29:22.924Z,4.27
2019-01-21T11:35:17.922Z,4.41
2019-01-21T11:41:12.927Z,3.97
2019-01-21T11:47:07.979Z,4.48
2019-01-21T11:53:02.937Z,4.4
2019-01-21T11:58:57.925Z,4.85
2019-01-21T12:04:52.953Z,5.3
2019-01-21T12:10:48.961Z,5.64
2019-01-21T12:16:42.972Z,5.74
2019-01-21T12:22:37.967Z,5.68
2019-01-21T12:28:32.945Z,6.03
2019-01-21T12:34:28.004Z,5.64
2019-01-21T12:40:22.947Z,4.95
2019-01-21T12:46:18.005Z,4.6
2019-01-21T12:52:12.994Z,4.73
2019-01-21T12:58:07.979Z,4.87
2019-01-21T13:04:02.991Z,5.01
2019-01-21T13:09:57.994Z,5.24
2019-01-21T13:15:52.987Z,5.98
2019-01-21T13:21:47.974Z,5.82
2019-01-21T13:27:42.972Z,5.6
2019-01-21T13:33:38.039Z,7.33
2019-01-21T13:39:33.025Z,7.42
2019-01-21T13:45:28.019Z,6.55
2019-01-21T13:51:22.983Z,6.59
2019-01-21T13:57:18.072Z,7.35
2019-01-21T14:03:12.994Z,6.42
2019-01-21T14:09:08.003Z,5.8
2019-01-21T14:15:03.037Z,6.41
2019-01-21T14:20:58.066Z,5.2
2019-01-21T14:26:53.038Z,5.67
2019-01-21T14:32:48.050Z,5.43
2019-01-21T14:38:43.017Z,6.42
2019-01-21T14:44:38.036Z,6.11
2019-01-21T14:50:33.021Z,5.88
2019-01-21T14:56:28.040Z,6.3
2019-01-21T15:02:23.060Z,7.03
2019-01-21T15:08:18.046Z,6.53
2019-01-21T15:14:13.170Z,6.5
2019-01-21T15:20:08.186Z,6.15
2019-01-21T15:26:03.591Z,6.46
2019-01-21T15:31:58.154Z,6.15
2019-01-21T15:37:53.125Z,5.52
2019-01-21T15:43:48.085Z,6.04
2019-01-21T15:49:43.981Z,6.39
2019-01-21T15:55:38.131Z,6.8
2019-01-21T16:01:33.054Z,5.86
2019-01-21T16:07:28.050Z,5.13
2019-01-21T16:13:23.073Z,5.23
2019-01-21T16:19:18.094Z,3.07
2019-01-21T16:25:13.068Z,3.9
2019-01-21T16:31:08.073Z,5.22
2019-01-21T16:37:03.094Z,4.63
2019-01-21T16:42:58.099Z,3.91
2019-01-21T16:48:53.118Z,4.26
2019-01-21T16:54:48.099Z,3.76
2019-01-21T17:00:43.125Z,4.42
2019-01-21T17:06:39.488Z,3.83
2019-01-21T17:12:33.132Z,4.23
2019-01-21T17:18:28.115Z,4.08
2019-01-21T17:24:23.101Z,3.84
2019-01-21T17:30:18.107Z,3.45
2019-01-21T17:36:13.110Z,3.15
2019-01-21T17:42:08.111Z,3.56
2019-01-21T17:48:03.117Z,3.7
2019-01-21T17:53:58.118Z,3.2
2019-01-21T17:59:53.125Z,3.23
2019-01-21T18:05:48.158Z,2.96
2019-01-21T18:11:43.137Z,3.37
2019-01-21T18:17:38.148Z,3.03
2019-01-21T18:23:33.125Z,3.2
2019-01-21T18:29:28.138Z,2.99
2019-01-21T18:35:23.170Z,3.19
2019-01-21T18:41:18.187Z,3.43
2019-01-21T18:47:13.153Z,3.34
2019-01-21T18:53:08.152Z,3.61
2019-01-21T18:59:03.167Z,3.18
2019-01-21T19:04:58.188Z,3.8
2019-01-21T19:10:53.194Z,3.55
2019-01-21T19:16:48.203Z,3.73
2019-01-21T19:22:43.187Z,3.95
2019-01-21T19:28:38.159Z,5.42
2019-01-21T19:34:33.210Z,4.32
2019-01-21T19:40:28.232Z,4.53
2019-01-21T19:46:23.185Z,4
2019-01-21T19:52:18.204Z,5.08
2019-01-21T19:58:13.194Z,4.72
2019-01-21T20:04:08.190Z,4.32
2019-01-21T20:10:03.195Z,4.77
2019-01-21T20:15:58.256Z,4.84
2019-01-21T20:21:53.238Z,5.08
2019-01-21T20:27:48.184Z,5.34
2019-01-21T20:33:43.246Z,4.16
2019-01-21T20:39:38.198Z,4.99
2019-01-21T20:45:33.225Z,5.12
2019-01-21T20:51:28.202Z,4.56
2019-01-21T20:57:23.218Z,4.99
2019-01-21T21:03:18.291Z,5.87
2019-01-21T21:09:13.273Z,4.59
2019-01-21T21:15:08.249Z,5.63
2019-01-21T21:21:03.276Z,5.05
2019-01-21T21:26:58.274Z,5.72
2019-01-21T21:32:53.233Z,5.84
2019-01-21T21:38:48.284Z,6.12
2019-01-21T21:44:43.262Z,5.28
2019-01-21T21:50:38.278Z,5.84
2019-01-21T21:56:33.232Z,6.03
2019-01-21T22:02:28.244Z,6.72
2019-01-21T22:08:23.243Z,6.37
2019-01-21T22:14:18.246Z,7.88
2019-01-21T22:20:14.298Z,6.56
2019-01-21T22:26:08.259Z,6.7
2019-01-21T22:32:03.304Z,6.01
2019-01-21T22:37:58.314Z,7.08
2019-01-21T22:43:53.309Z,6.83
2019-01-21T22:49:48.281Z,7.32
2019-01-21T22:55:43.321Z,7.64
2019-01-21T23:01:38.305Z,7.24
2019-01-21T23:07:33.292Z,6.96
2019-01-21T23:13:28.291Z,7.13
2019-01-21T23:19:23.294Z,7.73
2019-01-21T23:25:18.283Z,7.47
2019-01-21T23:31:13.316Z,7.11
2019-01-21T23:37:08.288Z,8.36
2019-01-21T23:43:03.299Z,8.45
2019-01-21T23:48:58.315Z,7.8
2019-01-21T23:54:53.341Z,7.65
